createdAt,value
2017-09-11T00:00:30.344Z,12.10
2017-09-11T00:02:59.234Z,12.10
2017-09-11T00:05:27.409Z,12.10
2017-09-11T00:07:55.583Z,12.10
2017-09-11T00:10:23.764Z,12.10
2017-09-11T00:12:51.838Z,12.10
2017-09-11T00:15:20.002Z,12.10
2017-09-11T00:17:48.074Z,12.10
2017-09-11T00:20:16.150Z,12.10
2017-09-11T00:22:44.258Z,12.20
2017-09-11T00:25:13.210Z,12.10
2017-09-11T00:27:41.698Z,12.10
2017-09-11T00:30:10.196Z,12.20
2017-09-11T00:32:38.270Z,12.10
2017-09-11T00:35:06.368Z,12.10
2017-09-11T00:37:35.310Z,12.10
2017-09-11T00:40:03.382Z,12.10
2017-09-11T00:42:31.558Z,12.10
2017-09-11T00:45:00.143Z,12.20
2017-09-11T00:47:28.766Z,12.20
2017-09-11T00:49:57.705Z,12.30
2017-09-11T00:52:26.614Z,12.30
2017-09-11T00:54:54.786Z,12.40
2017-09-11T00:57:22.890Z,12.40
2017-09-11T00:59:51.442Z,12.50
2017-09-11T01:02:19.923Z,12.50
2017-09-11T01:04:48.018Z,12.50
2017-09-11T01:07:16.486Z,12.50
2017-09-11T01:09:44.647Z,12.50
2017-09-11T01:12:13.134Z,12.50
2017-09-11T01:14:41.631Z,12.50
2017-09-11T01:17:09.705Z,12.50
2017-09-11T01:19:37.859Z,12.60
2017-09-11T01:22:06.030Z,12.60
2017-09-11T01:24:34.106Z,12.60
2017-09-11T01:27:02.278Z,12.60
2017-09-11T01:29:30.454Z,12.70
2017-09-11T01:31:58.626Z,12.70
2017-09-11T01:34:26.723Z,12.70
2017-09-11T01:36:54.874Z,12.80
2017-09-11T01:39:22.980Z,12.90
2017-09-11T01:41:51.543Z,12.90
2017-09-11T01:44:19.706Z,12.80
2017-09-11T01:46:47.792Z,12.90
2017-09-11T01:49:15.955Z,12.80
2017-09-11T01:51:44.131Z,12.80
2017-09-11T01:54:12.202Z,12.70
2017-09-11T01:56:40.375Z,12.60
2017-09-11T01:59:08.452Z,12.60
2017-09-11T02:01:36.546Z,12.50
2017-09-11T02:04:05.018Z,12.50
2017-09-11T02:06:33.170Z,12.50
2017-09-11T02:09:01.656Z,12.50
2017-09-11T02:11:29.731Z,12.50
2017-09-11T02:13:58.306Z,12.50
2017-09-11T02:16:26.408Z,12.60
2017-09-11T02:18:54.554Z,12.70
2017-09-11T02:21:22.726Z,12.70
2017-09-11T02:23:50.907Z,12.70
2017-09-11T02:26:19.079Z,12.70
2017-09-11T02:28:47.255Z,12.80
2017-09-11T02:31:15.429Z,12.70
2017-09-11T02:33:43.602Z,12.70
2017-09-11T02:36:11.679Z,12.70
2017-09-11T02:38:39.847Z,12.80
2017-09-11T02:41:08.747Z,12.70
2017-09-11T02:43:36.843Z,12.70
2017-09-11T02:46:05.699Z,12.60
2017-09-11T02:48:33.806Z,12.60
2017-09-11T02:51:02.663Z,12.70
2017-09-11T02:53:30.747Z,12.70
2017-09-11T02:55:58.853Z,12.70
2017-09-11T02:58:27.799Z,12.70
2017-09-11T03:00:56.662Z,12.80
2017-09-11T03:03:24.770Z,12.80
2017-09-11T03:05:52.934Z,12.80
2017-09-11T03:08:21.051Z,12.70
2017-09-11T03:10:49.903Z,12.80
2017-09-11T03:13:18.082Z,12.80
2017-09-11T03:15:46.578Z,12.80
2017-09-11T03:18:14.730Z,12.80
2017-09-11T03:20:42.826Z,12.80
2017-09-11T03:23:10.974Z,12.80
2017-09-11T03:25:39.066Z,12.80
2017-09-11T03:28:07.227Z,12.80
2017-09-11T03:30:36.120Z,12.80
2017-09-11T03:33:04.296Z,12.90
2017-09-11T03:35:32.390Z,12.80
2017-09-11T03:38:01.258Z,12.80
2017-09-11T03:40:29.363Z,12.90
2017-09-11T03:42:58.219Z,12.90
2017-09-11T03:45:26.294Z,12.90
2017-09-11T03:47:54.394Z,12.80
2017-09-11T03:50:23.246Z,12.80
2017-09-11T03:52:51.842Z,12.90
2017-09-11T03:55:19.923Z,12.90
2017-09-11T03:57:48.078Z,12.90
2017-09-11T04:00:16.547Z,12.90
2017-09-11T04:02:44.622Z,12.90
2017-09-11T04:05:12.814Z,12.90
2017-09-11T04:07:41.702Z,13.00
2017-09-11T04:10:09.875Z,13.00
2017-09-11T04:12:38.047Z,12.90
2017-09-11T04:15:06.515Z,12.90
2017-09-11T04:17:34.596Z,12.90
2017-09-11T04:20:02.709Z,12.90
2017-09-11T04:22:31.566Z,12.90
2017-09-11T04:24:59.743Z,12.90
2017-09-11T04:27:28.613Z,12.90
2017-09-11T04:29:56.710Z,12.90
2017-09-11T04:32:24.787Z,12.90
2017-09-11T04:34:53.662Z,13.00
2017-09-11T04:37:21.743Z,12.90
2017-09-11T04:39:49.907Z,12.90
2017-09-11T04:42:17.987Z,13.00
2017-09-11T04:44:46.567Z,13.00
2017-09-11T04:47:14.672Z,13.00
2017-09-11T04:49:43.635Z,13.00
2017-09-11T04:52:11.810Z,13.10
2017-09-11T04:54:40.291Z,13.10
2017-09-11T04:57:08.363Z,13.20
2017-09-11T04:59:36.863Z,13.10
2017-09-11T05:02:04.935Z,13.10
2017-09-11T05:04:33.427Z,13.10
2017-09-11T05:07:02.270Z,13.00
2017-09-11T05:09:30.387Z,13.00
2017-09-11T05:11:59.252Z,12.90
2017-09-11T05:14:27.323Z,12.80
2017-09-11T05:16:55.431Z,12.80
2017-09-11T05:19:24.271Z,12.80
2017-09-11T05:21:52.455Z,12.70
2017-09-11T05:24:20.635Z,12.80
2017-09-11T05:26:48.811Z,12.70
2017-09-11T05:29:16.887Z,12.70
2017-09-11T05:31:45.046Z,12.70
2017-09-11T05:34:13.147Z,12.70
2017-09-11T05:36:41.622Z,12.60
2017-09-11T05:39:10.198Z,12.60
2017-09-11T05:41:38.775Z,12.60
2017-09-11T05:44:06.872Z,12.60
2017-09-11T05:46:34.946Z,12.70
2017-09-11T05:49:03.907Z,12.70
2017-09-11T05:51:32.086Z,12.60
2017-09-11T05:54:00.195Z,12.60
2017-09-11T05:56:29.151Z,12.60
2017-09-11T05:58:57.324Z,12.60
2017-09-11T06:01:25.401Z,12.60
2017-09-11T06:03:53.495Z,12.50
2017-09-11T06:06:22.054Z,12.40
2017-09-11T06:08:50.227Z,12.40
2017-09-11T06:11:18.302Z,12.40
2017-09-11T06:13:46.779Z,12.30
2017-09-11T06:16:14.874Z,12.40
2017-09-11T06:18:42.955Z,12.40
2017-09-11T06:21:11.506Z,12.50
2017-09-11T06:23:39.678Z,12.50
2017-09-11T06:26:07.866Z,12.50
2017-09-11T06:28:36.031Z,12.60
2017-09-11T06:31:04.109Z,12.70
2017-09-11T06:33:32.280Z,12.70
2017-09-11T06:36:00.459Z,12.70
2017-09-11T06:38:28.628Z,12.80
2017-09-11T06:40:56.711Z,12.80
2017-09-11T06:43:24.822Z,12.80
2017-09-11T06:45:52.906Z,12.80
2017-09-11T06:48:21.766Z,12.80
2017-09-11T06:50:50.620Z,12.90
2017-09-11T06:53:18.800Z,13.00
2017-09-11T06:55:46.966Z,13.10
2017-09-11T06:58:15.046Z,13.10
2017-09-11T07:00:43.127Z,13.00
2017-09-11T07:03:11.294Z,13.00
2017-09-11T07:05:39.376Z,13.00
2017-09-11T07:08:08.258Z,12.90
2017-09-11T07:10:37.229Z,12.90
2017-09-11T07:13:17.831Z,12.90
2017-09-11T07:15:46.703Z,12.90
2017-09-11T07:18:14.815Z,12.90
2017-09-11T07:20:43.354Z,12.90
2017-09-11T07:23:11.534Z,12.90
2017-09-11T07:25:39.707Z,12.90
2017-09-11T07:28:07.879Z,12.90
2017-09-11T07:30:35.975Z,13.00
2017-09-11T07:33:04.131Z,13.00
2017-09-11T07:35:32.618Z,13.10
2017-09-11T07:38:00.778Z,13.10
2017-09-11T07:40:28.882Z,13.10
2017-09-11T07:42:57.719Z,13.20
2017-09-11T07:45:25.923Z,13.20
2017-09-11T07:47:54.094Z,13.20
2017-09-11T07:50:22.204Z,13.20
2017-09-11T07:52:51.062Z,13.20
2017-09-11T07:55:19.543Z,13.30
2017-09-11T07:57:47.711Z,13.30
2017-09-11T08:00:16.295Z,13.30
2017-09-11T08:02:44.397Z,13.30
2017-09-11T08:05:12.538Z,13.40
2017-09-11T08:07:40.715Z,13.40
2017-09-11T08:10:08.888Z,13.50
2017-09-11T08:12:37.058Z,13.50
2017-09-11T08:15:05.235Z,13.60
2017-09-11T08:17:33.411Z,13.70
2017-09-11T08:20:01.487Z,13.80
2017-09-11T08:22:29.655Z,13.90
2017-09-11T08:24:57.835Z,13.90
2017-09-11T08:27:26.007Z,14.00
2017-09-11T08:29:54.178Z,14.20
2017-09-11T08:32:22.359Z,14.20
2017-09-11T08:34:50.530Z,14.20
2017-09-11T08:37:19.029Z,14.30
2017-09-11T08:39:47.187Z,14.40
2017-09-11T08:42:15.364Z,14.50
2017-09-11T08:44:43.463Z,14.50
2017-09-11T08:47:12.326Z,14.50
2017-09-11T08:49:40.494Z,14.50
2017-09-11T08:52:08.967Z,14.50
2017-09-11T08:54:37.067Z,14.50
2017-09-11T08:57:05.223Z,14.50
2017-09-11T08:59:33.413Z,14.60
2017-09-11T09:02:01.507Z,14.80
2017-09-11T09:04:30.355Z,14.80
2017-09-11T09:06:58.535Z,14.60
2017-09-11T09:09:27.119Z,14.70
2017-09-11T09:11:55.295Z,14.70
2017-09-11T09:14:23.470Z,14.60
2017-09-11T09:16:51.646Z,14.60
2017-09-11T09:19:19.904Z,14.80
2017-09-11T09:21:48.726Z,14.90
2017-09-11T09:24:17.603Z,14.90
2017-09-11T09:26:45.774Z,14.90
2017-09-11T09:29:13.950Z,14.90
2017-09-11T09:31:42.052Z,14.90
2017-09-11T09:34:10.903Z,14.90
2017-09-11T09:36:39.479Z,15.00
2017-09-11T09:39:07.950Z,15.20
2017-09-11T09:41:36.152Z,15.40
2017-09-11T09:44:04.327Z,15.70
2017-09-11T09:46:32.406Z,15.90
2017-09-11T09:49:00.567Z,16.20
2017-09-11T09:51:28.653Z,16.30
2017-09-11T09:53:56.731Z,16.40
2017-09-11T09:56:24.893Z,16.40
2017-09-11T09:58:53.382Z,16.30
2017-09-11T10:01:21.486Z,16.30
2017-09-11T10:03:50.440Z,16.30
2017-09-11T10:06:18.614Z,16.30
2017-09-11T10:08:46.706Z,16.30
2017-09-11T10:11:15.547Z,16.50
2017-09-11T10:13:43.741Z,17.30
2017-09-11T10:16:11.823Z,17.50
2017-09-11T10:18:39.995Z,17.30
2017-09-11T10:21:08.170Z,16.90
2017-09-11T10:23:36.267Z,16.80
2017-09-11T10:26:05.127Z,16.70
2017-09-11T10:28:33.306Z,16.80
2017-09-11T10:31:01.396Z,18.10
2017-09-11T10:33:29.551Z,18.90
2017-09-11T10:35:57.634Z,19.80
2017-09-11T10:38:25.737Z,20.50
2017-09-11T10:40:54.574Z,20.60
2017-09-11T10:43:22.679Z,20.50
2017-09-11T10:45:51.528Z,21.10
2017-09-11T10:48:19.599Z,20.80
2017-09-11T10:50:47.694Z,20.70
2017-09-11T10:53:15.863Z,21.00
2017-09-11T10:55:43.963Z,20.40
2017-09-11T10:58:12.075Z,20.40
2017-09-11T11:00:40.546Z,19.80
2017-09-11T11:03:08.619Z,19.80
2017-09-11T11:05:37.111Z,19.80
2017-09-11T11:08:05.196Z,19.80
2017-09-11T11:10:33.312Z,19.80
2017-09-11T11:13:01.378Z,19.80
2017-09-11T11:15:30.255Z,20.20
2017-09-11T11:17:58.459Z,20.50
2017-09-11T11:20:27.319Z,20.20
2017-09-11T11:22:55.492Z,19.90
2017-09-11T11:25:23.666Z,19.70
2017-09-11T11:27:51.843Z,19.50
2017-09-11T11:30:19.935Z,19.90
2017-09-11T11:32:48.412Z,19.90
2017-09-11T11:35:16.575Z,19.90
2017-09-11T11:37:44.742Z,19.80
2017-09-11T11:40:13.651Z,19.40
2017-09-11T11:42:41.807Z,19.10
2017-09-11T11:45:09.987Z,19.00
2017-09-11T11:47:38.121Z,19.00
2017-09-11T11:50:06.231Z,19.20
2017-09-11T11:52:34.403Z,19.30
2017-09-11T11:55:02.576Z,19.10
2017-09-11T11:57:30.759Z,18.90
2017-09-11T11:59:58.839Z,18.80
2017-09-11T12:02:26.934Z,18.50
2017-09-11T12:04:55.791Z,18.30
2017-09-11T12:07:23.895Z,18.30
2017-09-11T12:09:52.739Z,18.20
2017-09-11T12:12:20.927Z,18.30
2017-09-11T12:14:49.506Z,18.30
2017-09-11T12:17:17.583Z,18.40
2017-09-11T12:19:45.770Z,18.60
2017-09-11T12:22:13.955Z,20.80
2017-09-11T12:24:42.512Z,22.60
2017-09-11T12:27:10.687Z,23.90
2017-09-11T12:29:38.771Z,23.80
2017-09-11T12:32:06.930Z,23.70
2017-09-11T12:34:35.015Z,23.80
2017-09-11T12:37:03.122Z,24.10
2017-09-11T12:39:31.971Z,22.10
2017-09-11T12:42:00.067Z,22.90
2017-09-11T12:44:28.912Z,22.60
2017-09-11T12:46:57.016Z,21.60
2017-09-11T12:49:25.099Z,20.30
2017-09-11T12:51:53.174Z,19.80
2017-09-11T12:54:22.050Z,19.50
2017-09-11T12:56:50.221Z,19.20
2017-09-11T12:59:19.091Z,19.00
2017-09-11T13:01:47.279Z,18.90
2017-09-11T13:04:15.451Z,18.60
2017-09-11T13:06:43.622Z,18.30
2017-09-11T13:09:11.799Z,18.20
2017-09-11T13:11:39.983Z,18.20
2017-09-11T13:14:08.555Z,18.20
2017-09-11T13:16:36.655Z,18.30
2017-09-11T13:19:05.622Z,18.50
2017-09-11T13:21:33.798Z,18.80
2017-09-11T13:24:02.687Z,19.10
2017-09-11T13:26:30.795Z,19.20
2017-09-11T13:28:59.691Z,20.00
2017-09-11T13:31:28.499Z,20.90
2017-09-11T13:33:56.602Z,22.60
2017-09-11T13:36:25.071Z,24.70
2017-09-11T13:38:53.547Z,25.20
2017-09-11T13:41:22.067Z,25.30
2017-09-11T13:43:50.147Z,25.50
2017-09-11T13:46:18.242Z,26.20
2017-09-11T13:48:46.719Z,26.10
2017-09-11T13:51:15.596Z,26.10
2017-09-11T13:53:43.666Z,26.40
2017-09-11T13:56:11.743Z,26.60
2017-09-11T13:58:40.615Z,27.00
2017-09-11T14:01:09.459Z,27.90
2017-09-11T14:03:37.557Z,27.90
2017-09-11T14:06:05.639Z,24.80
2017-09-11T14:08:33.751Z,22.60
2017-09-11T14:11:02.594Z,21.20
2017-09-11T14:13:30.671Z,20.70
2017-09-11T14:15:58.818Z,20.70
2017-09-11T14:18:26.904Z,22.10
2017-09-11T14:20:55.375Z,23.70
2017-09-11T14:23:23.871Z,24.10
2017-09-11T14:25:51.976Z,25.10
2017-09-11T14:28:20.079Z,25.90
2017-09-11T14:30:48.930Z,24.00
2017-09-11T14:33:17.007Z,23.50
2017-09-11T14:35:45.103Z,25.40
2017-09-11T14:38:13.951Z,25.90
2017-09-11T14:40:42.058Z,26.30
2017-09-11T14:43:10.903Z,25.30
2017-09-11T14:45:39.023Z,23.90
2017-09-11T14:48:07.120Z,24.50
2017-09-11T14:50:35.610Z,25.40
2017-09-11T14:53:03.722Z,26.80
2017-09-11T14:55:31.806Z,27.80
2017-09-11T14:57:59.878Z,28.10
2017-09-11T15:00:27.979Z,28.10
2017-09-11T15:02:56.495Z,27.60
2017-09-11T15:05:24.971Z,27.50
2017-09-11T15:07:53.047Z,27.20
2017-09-11T15:10:21.146Z,26.70
2017-09-11T15:12:49.227Z,25.50
2017-09-11T15:15:17.331Z,23.40
2017-09-11T15:17:46.174Z,22.30
2017-09-11T15:20:14.286Z,23.20
2017-09-11T15:22:42.367Z,23.20
2017-09-11T15:25:11.215Z,22.30
2017-09-11T15:27:39.314Z,21.80
2017-09-11T15:30:07.779Z,21.40
2017-09-11T15:32:35.883Z,21.70
2017-09-11T15:35:04.728Z,21.20
2017-09-11T15:37:32.860Z,20.60
2017-09-11T15:40:01.676Z,20.00
2017-09-11T15:42:29.767Z,19.60
2017-09-11T15:44:57.872Z,19.30
2017-09-11T15:47:26.738Z,19.30
2017-09-11T15:49:56.318Z,20.00
2017-09-11T15:52:24.432Z,19.80
2017-09-11T15:54:52.539Z,19.40
2017-09-11T15:57:21.370Z,18.90
2017-09-11T15:59:49.468Z,18.30
2017-09-11T16:02:17.550Z,17.90
2017-09-11T16:04:46.514Z,17.30
2017-09-11T16:07:14.591Z,17.10
2017-09-11T16:09:42.759Z,17.10
2017-09-11T16:12:10.926Z,17.00
2017-09-11T16:14:39.107Z,16.70
2017-09-11T16:17:07.682Z,16.50
2017-09-11T16:19:36.171Z,16.30
2017-09-11T16:22:04.278Z,16.10
2017-09-11T16:24:33.239Z,15.90
2017-09-11T16:27:01.407Z,15.60
2017-09-11T16:29:58.273Z,15.50
2017-09-11T16:32:26.343Z,15.40
2017-09-11T16:34:54.446Z,15.30
2017-09-11T16:37:23.292Z,15.30
2017-09-11T16:39:51.367Z,15.20
2017-09-11T16:42:19.479Z,15.20
2017-09-11T16:44:48.322Z,15.30
2017-09-11T16:47:16.403Z,15.30
2017-09-11T16:49:44.511Z,15.40
2017-09-11T16:52:13.355Z,15.40
2017-09-11T16:54:41.439Z,15.20
2017-09-11T16:57:09.544Z,15.00
2017-09-11T16:59:38.036Z,14.90
2017-09-11T17:02:06.510Z,14.80
2017-09-11T17:04:35.003Z,14.70
2017-09-11T17:07:03.475Z,14.70
2017-09-11T17:09:32.350Z,14.70
2017-09-11T17:12:01.202Z,14.60
2017-09-11T17:14:29.679Z,14.50
2017-09-11T17:16:58.910Z,14.30
2017-09-11T17:19:26.995Z,14.30
2017-09-11T17:21:55.095Z,14.30
2017-09-11T17:24:23.572Z,14.20
2017-09-11T17:26:53.351Z,14.10
2017-09-11T17:29:21.426Z,14.00
2017-09-11T17:31:50.280Z,14.00
2017-09-11T17:34:18.390Z,13.90
2017-09-11T17:36:46.475Z,13.90
2017-09-11T17:39:15.342Z,13.90
2017-09-11T17:41:43.430Z,13.90
2017-09-11T17:44:11.964Z,13.90
2017-09-11T17:46:40.038Z,13.80
2017-09-11T17:49:08.142Z,13.90
2017-09-11T17:51:36.219Z,13.80
2017-09-11T17:54:04.699Z,13.90
2017-09-11T17:56:33.195Z,13.90
2017-09-11T17:59:01.667Z,13.90
2017-09-11T18:01:29.790Z,13.90
2017-09-11T18:03:59.003Z,13.80
2017-09-11T18:06:27.104Z,13.80
2017-09-11T18:08:55.183Z,13.70
2017-09-11T18:11:23.303Z,13.70
2017-09-11T18:13:51.819Z,13.50
2017-09-11T18:16:19.905Z,13.50
2017-09-11T18:18:48.435Z,13.40
2017-09-11T18:21:16.515Z,13.40
2017-09-11T18:23:44.596Z,13.40
2017-09-11T18:26:12.699Z,13.40
2017-09-11T18:28:40.779Z,13.30
2017-09-11T18:31:08.859Z,13.30
2017-09-11T18:33:36.962Z,13.30
2017-09-11T18:36:05.059Z,13.30
2017-09-11T18:38:33.163Z,13.30
2017-09-11T18:41:01.634Z,13.30
2017-09-11T18:43:30.139Z,13.30
2017-09-11T18:45:59.007Z,13.20
2017-09-11T18:48:27.087Z,13.20
2017-09-11T18:50:55.202Z,13.20
2017-09-11T18:53:23.286Z,13.40
2017-09-11T18:55:51.776Z,13.50
2017-09-11T18:58:19.875Z,13.50
2017-09-11T19:00:47.964Z,13.50
2017-09-11T19:03:16.081Z,13.40
2017-09-11T19:05:44.183Z,13.40
2017-09-11T19:08:12.261Z,13.30
2017-09-11T19:10:40.359Z,13.30
2017-09-11T19:13:09.207Z,13.30
2017-09-11T19:15:37.319Z,13.40
2017-09-11T19:18:05.398Z,13.30
2017-09-11T19:20:33.476Z,13.30
2017-09-11T19:23:02.339Z,13.30
2017-09-11T19:25:30.451Z,13.20
2017-09-11T19:27:59.290Z,13.20
2017-09-11T19:30:27.391Z,13.20
2017-09-11T19:32:55.494Z,13.20
2017-09-11T19:35:23.575Z,13.10
2017-09-11T19:37:51.794Z,13.10
2017-09-11T19:40:19.875Z,13.10
2017-09-11T19:42:49.454Z,13.10
2017-09-11T19:45:17.563Z,13.00
2017-09-11T19:47:46.411Z,13.00
2017-09-11T19:50:14.486Z,12.90
2017-09-11T19:52:42.583Z,12.90
2017-09-11T19:55:12.171Z,12.90
2017-09-11T19:57:40.350Z,12.90
2017-09-11T20:00:08.531Z,12.90
2017-09-11T20:02:36.702Z,12.90
2017-09-11T20:05:05.292Z,12.90
2017-09-11T20:07:34.139Z,12.90
2017-09-11T20:10:02.790Z,12.80
2017-09-11T20:12:30.910Z,12.80
2017-09-11T20:14:59.007Z,12.80
2017-09-11T20:17:27.101Z,12.80
2017-09-11T20:19:55.596Z,12.80
2017-09-11T20:22:24.460Z,12.70
2017-09-11T20:24:52.535Z,12.70
2017-09-11T20:27:20.639Z,12.70
2017-09-11T20:29:49.590Z,12.70
2017-09-11T20:32:17.768Z,12.70
2017-09-11T20:34:46.647Z,12.70
2017-09-11T20:37:15.923Z,12.70
2017-09-11T20:39:44.039Z,12.70
2017-09-11T20:42:12.134Z,12.70
2017-09-11T20:44:40.990Z,12.80
2017-09-11T20:47:09.092Z,12.90
2017-09-11T20:49:37.167Z,12.90
2017-09-11T20:52:06.034Z,12.90
2017-09-11T20:54:34.175Z,12.90
2017-09-11T20:57:02.259Z,13.00
2017-09-11T20:59:30.340Z,13.00
2017-09-11T21:01:58.519Z,13.00
2017-09-11T21:04:26.691Z,13.10
2017-09-11T21:06:54.808Z,13.10
2017-09-11T21:09:23.751Z,13.10
2017-09-11T21:11:51.927Z,13.10
2017-09-11T21:14:20.035Z,13.20
2017-09-11T21:16:48.881Z,13.20
2017-09-11T21:19:16.959Z,13.20
2017-09-11T21:21:45.143Z,13.20
2017-09-11T21:24:13.401Z,13.20
2017-09-11T21:26:42.358Z,13.20
2017-09-11T21:29:11.190Z,13.20
2017-09-11T21:31:39.690Z,13.20
2017-09-11T21:34:07.772Z,13.30
2017-09-11T21:36:35.922Z,13.30
2017-09-11T21:39:04.498Z,13.30
2017-09-11T21:41:32.582Z,13.30
2017-09-11T21:44:00.754Z,13.30
2017-09-11T21:46:29.346Z,13.30
2017-09-11T21:48:57.428Z,13.20
2017-09-11T21:51:25.502Z,13.20
2017-09-11T21:53:53.750Z,13.20
2017-09-11T21:56:21.787Z,13.30
2017-09-11T21:58:49.907Z,13.30
2017-09-11T22:01:18.078Z,13.30
2017-09-11T22:03:46.663Z,13.40
2017-09-11T22:06:14.741Z,13.40
2017-09-11T22:08:42.815Z,13.40
2017-09-11T22:11:10.979Z,13.40
2017-09-11T22:13:39.159Z,13.40
2017-09-11T22:16:07.240Z,13.50
2017-09-11T22:18:35.711Z,13.50
2017-09-11T22:21:04.198Z,13.50
2017-09-11T22:23:32.368Z,13.50
2017-09-11T22:26:00.543Z,13.60
2017-09-11T22:28:28.714Z,13.60
2017-09-11T22:30:56.791Z,13.60
2017-09-11T22:33:24.967Z,13.60
2017-09-11T22:35:53.063Z,13.60
2017-09-11T22:38:21.156Z,13.60
2017-09-11T22:40:49.274Z,13.60
2017-09-11T22:43:17.450Z,13.60
2017-09-11T22:45:46.044Z,13.70
2017-09-11T22:48:14.527Z,13.60
2017-09-11T22:50:42.631Z,13.60
2017-09-11T22:53:11.107Z,13.60
2017-09-11T22:55:39.975Z,13.60
2017-09-11T22:58:09.575Z,13.50
2017-09-11T23:00:37.743Z,13.50
2017-09-11T23:03:05.919Z,13.50
2017-09-11T23:05:33.999Z,13.50
2017-09-11T23:08:02.098Z,13.50
2017-09-11T23:10:30.955Z,13.40
2017-09-11T23:12:59.127Z,13.40
2017-09-11T23:15:27.279Z,13.40
2017-09-11T23:17:55.378Z,13.30
2017-09-11T23:20:23.543Z,13.30
2017-09-11T23:22:51.625Z,13.30
2017-09-11T23:25:19.795Z,13.30
2017-09-11T23:27:47.890Z,13.30
2017-09-11T23:30:16.858Z,13.30
2017-09-11T23:32:44.955Z,13.30
2017-09-11T23:35:13.102Z,13.30
2017-09-11T23:37:41.575Z,13.40
2017-09-11T23:40:09.651Z,13.40
2017-09-11T23:42:38.555Z,13.40
2017-09-11T23:45:06.732Z,13.50
2017-09-11T23:47:34.898Z,13.40
2017-09-11T23:50:02.979Z,13.50
2017-09-11T23:52:31.148Z,13.40
2017-09-11T23:54:59.243Z,13.40
2017-09-11T23:57:27.393Z,13.30
2017-09-11T23:59:55.487Z,13.30
